Weather observations for the past three days for
Elk City Regional Business Airport
Metric (Imperial)
Date Time (cdt) Wind (kph) Vis. (km) Weather Sky Cond. Temperature (ºC) Relative Humidity Wind Chill (°C) Heat Index (°C) Pressure Precipitation (cm)
Air Dwpt 6 hour altimeter (cm) sea level (mb) 1 hr 3 hr 6 hr
Max. Min.
07 14:35 SW 17 G 28 16.09 Fair CLR 22.8 1.5 25% 76.15 0.0
07 14:15 SW 15 G 28 16.09 Fair CLR 22.4 0.6 24% 76.2 0.0
07 13:55 SW 19 G 28 16.09 A Few Clouds FEW340 22.2 1.6 26% 76.23 0.0
07 13:35 SW 19 G 31 16.09 A Few Clouds FEW340 21.6 2.5 28% 76.25 0.0
07 13:15 W 19 G 31 16.09 Fair CLR 20.8 1.4 28% 76.28 0.0
07 12:55 W 20 16.09 Fair CLR 19.4 3.6 19.4 5.7 35% 76.3 0.0
07 12:35 SW 22 G 33 16.09 Fair CLR 19.1 4.8 39% 76.33 0.0
07 12:15 SW 20 G 26 16.09 Fair CLR 18.2 4.8 41% 76.38 0.0
07 11:55 W 20 G 33 16.09 Fair CLR 17.1 5.2 46% 76.4 0.0
07 11:35 SW 19 G 33 16.09 Fair CLR 17 5.2 46% 76.43 0.0
07 11:15 SW 24 16.09 Fair CLR 16.8 4.9 46% 76.43 0.0
07 10:55 W 19 16.09 Fair CLR 16.2 5.2 48% 76.45 0.0
07 10:35 SW 19 16.09 Fair CLR 16 6.4 53% 76.45 0.0
07 10:15 SW 15 16.09 Fair CLR 15.1 6.9 58% 76.48 0.0
07 09:55 W 13 16.09 Fair CLR 13.8 7.6 66% 76.48 0.0
07 09:35 Vrbl 9 16.09 Fair CLR 12.9 7.4 69% 76.5 0.0
07 09:15 W 11 16.09 Fair CLR 11.9 7.3 74% 76.53 0.0
07 08:55 W 15 16.09 Fair CLR 10.9 7.2 78% 76.53 0.0
07 08:35 W 13 16.09 Fair CLR 10.2 7.2 82% 76.53 0.0
07 08:15 NW 15 16.09 Fair CLR 9.4 7.8 90% 7 76.53 0.0
07 07:55 NW 13 16.09 Fair CLR 8.2 8.2 100% 6 76.53 0.0
07 07:35 NW 11 16.09 Fair CLR 6.9 6.9 100% 5 76.53 0.0
07 07:15 NW 9 12.87 Fair CLR 5.9 5.9 100% 4 76.53 0.0
07 06:55 NW 9 14.48 Fair CLR 5.5 5.5 10.5 5.2 100% 4 76.5 0.0
07 06:35 NW 11 14.48 Fair CLR 5.5 5.5 100% 3 76.5 0.0
07 06:15 NW 13 16.09 Fair CLR 6.1 6.1 100% 4 76.5 0.0
07 05:55 NW 13 16.09 Fair CLR 6.5 6.5 100% 4 76.5 0.0
07 05:35 NW 15 16.09 Fair CLR 6.8 6.8 100% 4 76.5 0.0
07 05:15 NW 19 16.09 Fair CLR 7.2 7.2 100% 4 76.5 0.0
07 04:55 NW 19 16.09 Fair CLR 7.6 7.6 100% 5 76.48 0.0
07 04:35 NW 20 16.09 Partly Cloudy FEW090 SCT120 7.8 7.8 100% 5 76.48 0.0
07 04:15 NW 19 16.09 Mostly Cloudy SCT090 BKN120 8.2 8.1 99% 6 76.48 0.0
07 03:55 NW 15 16.09 Overcast FEW090 OVC130 8.6 7.8 95% 6 76.5 0.0
07 03:35 NW 19 16.09 Overcast BKN090 OVC130 9 7.3 89% 7 76.5 0.0
07 03:15 NW 19 16.09 Overcast OVC090 10 4.7 70% 8 76.5 0.0
07 02:55 NW 17 16.09 Overcast OVC090 10.2 3.4 63% 76.5 0.0
07 02:35 NW 13 16.09 Overcast OVC090 10.3 3.4 63% 76.48 0.0
07 02:15 NW 13 16.09 Overcast OVC085 10.2 3.2 62% 76.48 0.0
07 01:55 NW 13 16.09 Overcast OVC085 10.2 3.3 63% 76.5 0.0
07 01:35 NW 9 16.09 Overcast OVC080 9.9 3.8 66% 9 76.5 0.0
07 01:15 Calm 16.09 Overcast OVC085 9.6 3.8 67% 76.53 0.0
07 00:55 NW 9 16.09 Overcast OVC090 9.2 3.6 16.6 7.8 68% 8 76.56 0.0
07 00:35 NW 11 16.09 Mostly Cloudy BKN090 9.1 3.4 68% 8 76.56 0.0
07 00:15 N 11 16.09 Partly Cloudy FEW060 SCT095 8 3.4 73% 6 76.53 0.0
06 23:55 N 15 16.09 A Few Clouds FEW060 8.2 3.2 71% 6 76.5 0.0
06 23:35 N 13 16.09 Fair CLR 8.3 2.9 69% 6 76.5 0.0
06 23:15 N 15 16.09 Fair CLR 8.7 2.6 66% 7 76.53 0.0
06 22:55 N 15 16.09 Fair CLR 9.3 2.2 61% 7 76.48 0.0
06 22:35 N 11 16.09 Fair CLR 9.3 2.3 62% 8 76.48 0.0
06 22:15 N 15 16.09 Fair CLR 10.9 1.8 54% 76.43 0.0
06 21:55 N 15 16.09 Fair CLR 11 1.9 54% 76.38 0.0
06 21:35 N 17 16.09 Fair CLR 11.1 1.9 53% 76.35 0.0
06 21:15 NE 15 16.09 Fair CLR 11.7 1.7 51% 76.33 0.0
06 20:55 NE 17 16.09 Fair CLR 12.4 1.7 48% 76.25 0.0
06 20:35 NE 22 16.09 Fair CLR 13.3 1.6 45% 76.25 0.0
06 20:15 NE 19 16.09 Fair CLR 14.2 1.7 43% 76.25 0.0
06 19:55 NE 17 16.09 Fair CLR 15.1 1.9 41% 76.23 0.0
06 19:35 NE 24 16.09 Fair CLR 15.6 1.7 39% 76.23 0.0
06 19:15 NE 17 16.09 Fair CLR 16.3 1.6 37% 76.2 0.0
06 18:55 NE 15 16.09 Fair CLR 16.5 2 17.3 13.6 38% 76.2 0.0
06 18:35 NE 19 16.09 A Few Clouds FEW060 16.9 1.9 37% 76.2 0.0
06 18:15 NE 19 16.09 A Few Clouds FEW060 17.1 2.3 37% 76.2 0.0
06 17:55 NE 19 16.09 Fair CLR 17 2.8 39% 76.17 0.0
06 17:35 N 11 16.09 A Few Clouds FEW055 16.7 3 40% 76.2 0.0
06 17:15 N 13 16.09 Mostly Cloudy BKN050 16.7 3 40% 76.2 0.0
06 16:55 N 15 16.09 A Few Clouds FEW048 16.6 3.2 41% 76.2 0.0
06 16:35 N 17 16.09 Partly Cloudy SCT048 15.9 3 42% 76.2 0.0
06 16:15 E 13 16.09 A Few Clouds FEW048 16.8 3.6 42% 76.17 0.0
06 15:55 NE 15 16.09 A Few Clouds FEW046 16.2 3.4 43% 76.2 0.0
06 15:35 NE 20 G 30 16.09 Mostly Cloudy BKN047 16.6 3.7 42% 76.23 0.0
06 15:15 NE 20 16.09 Mostly Cloudy BKN046 15.2 3.2 45% 76.25 0.0
06 14:55 NE 13 G 28 16.09 Mostly Cloudy BKN045 BKN100 15.5 3.2 44% 76.25 0.0
06 14:35 NE 22 G 30 16.09 Mostly Cloudy BKN045 15.1 3.3 45% 76.25 0.0
06 14:15 NE 20 G 30 16.09 Mostly Cloudy BKN044 15.1 3.1 45% 76.28 0.0
06 13:55 NE 13 16.09 Mostly Cloudy BKN043 BKN055 15.2 3.7 46% 76.28 0.0
06 13:35 NE 13 G 30 16.09 Overcast OVC043 14.4 3.6 49% 76.3 0.0
06 13:15 NE 19 16.09 Overcast OVC041 14.2 3.7 50% 76.33 0.0
06 12:55 NE 20 G 26 16.09 Overcast OVC040 13.7 3.7 14 7.9 51% 76.33 0.0
06 12:35 E 15 16.09 Overcast OVC040 13.5 3.8 52% 76.33 0.0
06 12:15 NE 17 16.09 Overcast OVC039 13.1 3.9 54% 76.33 0.0
06 11:55 E 20 G 28 16.09 Mostly Cloudy BKN036 13.5 4.3 54% 76.33 0.0
06 11:35 E 24 G 39 16.09 Mostly Cloudy BKN036 13.1 4.5 56% 76.3 0.0
06 11:15 NE 19 G 37 16.09 Mostly Cloudy BKN034 13.2 4.7 57% 76.3 0.0
06 10:55 E 28 G 41 16.09 A Few Clouds FEW032 12.8 4.7 58% 76.28 0.0
06 10:35 E 30 16.09 A Few Clouds FEW030 12.2 4.6 60% 76.25 0.0
06 10:15 E 24 16.09 Partly Cloudy SCT028 11.9 4.7 62% 76.25 0.0
06 09:55 NE 24 G 39 16.09 Mostly Cloudy BKN026 BKN046 10.7 4.7 67% 76.25 0.0
06 09:35 NE 24 G 43 16.09 Mostly Cloudy BKN025 BKN046 11.3 4.9 65% 76.25 0.0
06 09:15 NE 33 16.09 Partly Cloudy and Breezy SCT021 10 4.8 70% 7 76.23 0.0
06 08:55 NE 28 16.09 Partly Cloudy FEW020 SCT150 9 5.6 79% 6 76.25 0.0
06 08:35 NE 28 G 33 16.09 Fair CLR 8.2 5.5 83% 5 76.25 0.0
06 08:15 NE 20 16.09 A Few Clouds FEW150 8.1 5.7 85% 5 76.25 0.0
06 07:55 NE 19 16.09 Mostly Cloudy BKN048 8 5.9 87% 5 76.2 0.0
06 07:35 NE 28 16.09 Overcast OVC047 8.2 6 86% 5 76.23 0.0
06 07:15 NE 24 16.09 Overcast OVC045 8.1 6.2 88% 5 76.23 0.0
06 06:55 NE 26 16.09 Overcast SCT025 OVC043 8.4 6.1 9.1 8.4 86% 5 76.2 0.0
06 06:35 NE 22 16.09 Overcast OVC042 8.8 5.6 81% 6 76.2 0.0
06 06:15 NE 24 16.09 Overcast OVC039 8.8 5.4 79% 6 76.15 0.0
06 05:55 NE 28 16.09 Overcast OVC039 8.9 5.3 78% 6 76.12 0.0
06 05:35 NE 24 16.09 Overcast OVC040 8.9 5.3 78% 6 76.12 0.0
06 05:15 NE 22 16.09 Overcast OVC040 8.9 5.3 78% 6 76.12 0.0
06 04:55 NE 22 16.09 Overcast OVC039 8.7 5.2 79% 6 76.07 0.0
06 04:35 NE 19 G 33 16.09 Overcast BKN036 OVC044 8.7 5.1 78% 6 76.07 0.0
06 04:15 NE 24 16.09 Overcast FEW027 OVC037 8.9 5.1 77% 6 76.12 0.0
06 03:55 NE 20 16.09 Overcast FEW028 OVC036 8.9 5.1 77% 6 76.05 0.0
06 03:35 NE 20 16.09 Overcast FEW029 OVC036 9 5 76% 6 76.07 0.0
06 03:15 NE 19 G 30 16.09 Overcast OVC036 8.9 4.2 73% 6 76.05 0.0
06 02:55 NE 20 16.09 Overcast OVC035 8.8 4.2 73% 6 76.05 0.0
06 02:35 NE 26 16.09 Overcast OVC034 8.9 4.4 74% 6 76.02 0.0
06 02:15 NE 20 16.09 Overcast OVC034 9 4 71% 6 76.02 0.0
06 01:55 NE 19 16.09 Overcast OVC032 9 3.5 69% 7 76.05 0.0
06 01:35 NE 24 16.09 Overcast OVC031 8.9 3.1 67% 6 76 0.0
06 00:55 NE 20 16.09 Overcast OVC030 9 4.1 12.1 9 72% 6 75.97 0.0
06 00:35 E 24 16.09 Overcast OVC029 9 4.6 74% 6 75.97 0.0
06 00:15 E 24 16.09 Overcast OVC028 9 5.5 79% 6 75.97 0.0
05 23:55 NE 26 16.09 Overcast BKN021 OVC027 9 6 82% 6 75.95 0.0
05 23:35 NE 30 G 39 16.09 Overcast OVC021 9.1 6.2 82% 6 75.97 0.0
05 23:15 NE 30 16.09 Overcast OVC022 9.2 5.9 80% 6 75.97 0.0
05 22:55 NE 30 G 43 16.09 Overcast OVC024 9.4 5.7 78% 6 75.97 0.0
05 22:35 NE 24 16.09 Overcast OVC022 9.6 6.5 81% 7 75.95 0.0
05 22:15 NE 28 16.09 Overcast OVC024 9.6 6.5 81% 7 75.9 0.0
05 21:55 NE 17 16.09 Partly Cloudy SCT023 9 6.5 85% 7 75.87 0.0
05 21:35 NE 24 16.09 A Few Clouds FEW024 9.3 6.3 82% 6 75.84 0.0
05 21:15 NE 33 G 43 16.09 Fair and Breezy CLR 9.6 6.1 79% 6 75.79 0.0
05 20:55 NE 28 16.09 Fair CLR 9.9 5.9 76% 7 75.79 0.0
05 20:35 NE 33 G 43 16.09 Partly Cloudy and Breezy SCT036 10.1 6.1 76% 75.77 0.0
05 20:15 NE 28 G 43 16.09 Mostly Cloudy BKN035 10.5 6.1 74% 75.74 0.0
05 19:55 NE 31 G 37 16.09 Overcast OVC034 11.1 5.8 70% 75.74 0.0
05 19:35 NE 24 16.09 Overcast OVC033 11.4 5.8 69% 75.77 0.0
05 19:15 NE 26 16.09 Overcast OVC032 11.9 5.7 66% 75.79 0.0
05 18:55 NE 20 16.09 Overcast OVC031 12.2 6.3 15.1 12.2 67% 75.79 0.0
05 18:35 NE 22 16.09 Overcast OVC031 12.5 6.8 68% 75.79 0.0
05 18:15 NE 28 16.09 Overcast OVC032 12.5 6.6 68% 75.77 0.0
05 17:55 NE 24 G 37 16.09 Overcast OVC035 13.5 6.6 63% 75.74 0.0
05 17:35 NE 31 G 43 16.09 Overcast OVC034 13.6 6.6 63% 75.69 0.0
05 17:15 NE 22 16.09 Overcast OVC032 13.7 6.8 63% 75.72 0.0
05 16:55 NE 24 16.09 Overcast OVC034 13.9 7.1 64% 75.72 0.0
05 16:35 NE 26 16.09 Overcast OVC034 14.2 7.3 63% 75.74 0.0
05 16:15 NE 19 16.09 Overcast OVC032 14 7.5 65% 75.74 0.0
05 15:55 NE 30 G 37 16.09 Overcast OVC030 14.1 7.5 65% 75.72 0.0
05 15:35 NE 24 G 46 16.09 Overcast OVC029 14.3 7.6 64% 75.72 0.0
05 15:15 NE 31 G 39 16.09 Overcast OVC028 14.8 8.1 64% 75.69 0.0
05 14:55 NE 33 G 46 16.09 Overcast and Breezy OVC025 14 8 67% 75.69 0.0
05 14:35 N 33 G 43 16.09 Overcast and Breezy OVC024 13.5 8.1 70% 75.69 0.0
05 14:15 NE 28 G 43 16.09 Overcast OVC024 13.4 8.2 71% 75.69 0.0
05 13:55 NE 31 G 43 16.09 Overcast OVC023 13.8 8.1 69% 75.67 0.0
05 13:35 NE 30 16.09 Overcast OVC023 13.3 8.3 72% 75.69 0.0
05 13:15 NE 35 G 43 16.09 Overcast and Breezy OVC022 12.8 8.2 74% 75.72 0.0
05 12:55 N 30 G 39 16.09 Overcast OVC021 13.1 8.5 17.5 12.6 74% 75.72 0.0
05 12:35 NE 35 G 44 16.09 Overcast and Breezy OVC021 13 8.5 74% 75.72 0.0
05 12:15 N 30 G 50 16.09 Overcast OVC020 12.8 8.5 75% 75.69 0.0
05 11:55 N 39 G 48 16.09 Overcast and Breezy OVC023 13.2 8.2 72% 75.67 0.0
05 11:35 NE 33 G 44 16.09 Overcast and Breezy OVC023 13.5 8.2 71% 75.64 0.0
05 11:15 NE 37 G 50 16.09 Overcast and Breezy OVC025 13.7 7.7 67% 75.59 0.0
05 10:55 NE 35 G 44 16.09 Overcast and Breezy OVC024 14 7.7 66% 75.57 0.0
05 10:35 N 30 G 44 16.09 Overcast OVC021 14 7.4 65% 75.54 0.0
05 10:15 N 35 G 43 16.09 Overcast and Breezy OVC020 14.1 7.8 66% 75.51 0.0
05 09:55 N 35 G 46 16.09 Overcast and Breezy OVC019 13.9 7.9 67% 75.49 0.0
05 09:35 N 35 G 48 16.09 Overcast and Breezy OVC019 13.5 7.9 69% 75.44 0.0
05 09:15 N 33 G 44 16.09 Overcast and Breezy OVC019 13.8 8.4 70% 75.44 0.0
05 08:55 N 37 G 54 14.48 Overcast and Breezy OVC018 13.7 9.4 75% 75.39 0.0
05 08:35 N 41 G 54 16.09 Overcast and Breezy OVC017 13.9 9.9 77% 75.34 0.0
05 08:15 N 37 G 50 16.09 Overcast and Breezy OVC017 14.4 11.4 82% 75.31 0.0
05 07:55 N 31 16.09 Overcast OVC016 15.4 12.9 85% 75.29 0.0
05 07:35 N 37 G 48 16.09 Overcast and Breezy OVC015 16.1 13.6 85% 75.26 0.0
05 07:15 N 31 G 48 14.48 Overcast BKN010 OVC015 17.2 15.3 89% 75.21 0.0
05 06:55 N 28 16.09 Partly Cloudy SCT010 16.6 13.7 22.8 16.1 83% 75.16 0.0
05 06:35 N 26 16.09 Fair CLR 16.2 10.3 68% 75.13 0.0
05 06:15 N 20 16.09 A Few Clouds FEW210 17.1 3.7 41% 75.11 0.0
05 05:55 N 6 16.09 Fair CLR 18.3 -0.7 28% 75.03 0.0
05 05:35 N 7 16.09 Fair CLR 18.5 -0.6 28% 75.01 0.0
05 05:15 W 11 16.09 Fair CLR 20.1 -1 24% 74.98 0.0
05 04:55 W 17 16.09 Fair CLR 21.8 -0.8 22% 74.93 0.0
05 04:35 W 17 16.09 Fair CLR 22.5 -0.9 21% 74.9 0.0
05 04:15 SW 19 16.09 Fair CLR 22.5 -0.8 21% 74.9 0.0
05 03:55 SW 19 16.09 Fair CLR 22.5 -0.3 22% 74.9 0.0
05 03:35 SW 15 16.09 Fair CLR 21.9 0.1 24% 74.9 0.0
05 03:15 SW 13 16.09 Fair CLR 20.7 1.2 27% 74.93 0.0
05 02:55 S 13 16.09 Partly Cloudy SCT250 18.1 3.9 39% 74.93 0.0
05 02:35 S 13 16.09 Partly Cloudy SCT240 18.2 4.1 39% 74.98 0.0
05 02:15 S 17 16.09 Partly Cloudy SCT250 19.1 3.5 36% 74.98 0.0
05 01:55 S 15 14.48 Light Rain SCT250 20 3.7 34% 74.98 0.0
05 01:35 S 15 16.09 Partly Cloudy SCT250 21 3.5 32% 75.01 0.0
05 01:15 S 17 16.09 A Few Clouds FEW250 21.3 3.5 31% 75.01 0.0
05 00:55 S 17 16.09 Mostly Cloudy BKN250 21.6 4.1 32.3 21.6 32% 75.03 0.0
05 00:35 SW 19 16.09 Overcast OVC250 23 4.1 29% 75.03 0.0
05 00:15 SW 19 16.09 Mostly Cloudy BKN260 23.5 5.2 31% 75.01 0.0
04 23:55 SW 22 16.09 Partly Cloudy SCT250 24.5 8.6 36% 25 75.03 0.0
04 23:35 SW 22 16.09 Mostly Cloudy BKN250 25 10.4 40% 26 75.03 0.0
04 23:15 S 20 16.09 A Few Clouds FEW140 25.4 9.2 36% 26 75.03 0.0
04 22:55 S 24 16.09 Mostly Cloudy BKN140 27 7.9 30% 26 75.03 0.0
04 22:35 S 28 G 37 16.09 Mostly Cloudy BKN140 27.3 8 30% 27 75.03 0.0
04 22:15 S 19 16.09 A Few Clouds FEW150 26.7 6.7 28% 26 75.03 0.0
04 21:55 SW 17 16.09 Mostly Cloudy BKN140 BKN160 27.8 4 22% 27 75.01 0.0
04 21:35 SW 20 16.09 Mostly Cloudy BKN140 28.4 1 17% 27 75.01 0.0
04 21:15 SW 20 12.87 Partly Cloudy SCT150 28.6 0.5 16% 27 75.01 0.0
04 20:55 SW 17 12.87 A Few Clouds FEW140 28.7 2 18% 27 74.98 0.0
04 20:35 SW 19 11.27 Partly Cloudy SCT140 29.6 2 17% 28 74.96 0.0
04 20:15 SW 20 G 46 11.27 Mostly Cloudy BKN130 30.7 1.1 15% 29 74.96 0.0
04 19:55 SW 22 11.27 A Few Clouds FEW130 31.1 1.4 15% 29 74.96 0.0
04 19:35 SW 30 G 43 8.05 A Few Clouds with Haze FEW130 31.6 1.9 15% 29 74.96 0.0
04 19:15 SW 24 G 33 8.05 A Few Clouds with Haze FEW140 31.9 1.1 14% 30 74.98 0.0
04 18:55 W 20 6.44 Partly Cloudy with Haze SCT140 32.4 0.3 33.2 25 13% 30 74.98 0.0
04 18:35 SW 17 11.27 Partly Cloudy SCT140 32.5 0.9 13% 30 74.98 0.0
04 18:15 W 31 G 41 12.87 A Few Clouds FEW140 32.8 -0.6 12% 30 75.01 0.0
04 17:55 SW 30 G 46 12.87 Mostly Cloudy BKN140 32.9 -0.3 12% 31 75.01 0.0
04 17:35 SW 26 G 35 11.27 Mostly Cloudy BKN140 32.8 1.2 13% 30 75.01 0.0
04 17:15 W 22 G 33 12.87 A Few Clouds FEW140 33 0.9 13% 31 75.03 0.0
04 16:55 W 20 G 31 12.87 Partly Cloudy SCT140 33.2 1.7 13% 31 75.06 0.0
04 16:35 W 22 12.87 Mostly Cloudy BKN140 BKN160 33.1 0.1 12% 31 75.06 0.0
04 16:15 SW 7 G 26 12.87 Mostly Cloudy BKN140 32.4 2.1 14% 30 75.08 0.0
04 15:55 S 20 12.87 Partly Cloudy SCT150 SCT280 32.4 3.4 16% 30 75.13 0.0
04 15:35 S 22 12.87 A Few Clouds FEW310 32.8 4.9 17% 31 75.16 0.0
04 15:15 S 22 11.27 A Few Clouds FEW310 32.3 5.4 18% 30 75.18 0.0
Date Time (cdt) Wind (kph) Vis. (km) Weather Sky Cond. Air Dwpt Max. Min. Relative Humidity Wind Chill (°C) Heat Index (°C) altimeter (cm) sea level (mb) 1 hr 3 hr 6 hr
6 hour
Temperature (ºC) Pressure Precipitation (cm)